Aviation Digital Data Service (ADDS)

Output produced by TAFs form (1604 UTC 21 September 2017)
found at http://www.aviationweather.gov/adds/tafs/
 
METAR text: ROIG 211100Z 19003KT 9999 FEW017 28/26 Q1009
Conditions at: ROIG (ISHIGAKIJIMA ISL, JP) observed 1100 UTC 21 September 2017
Temperature: 28.0°C (82°F)
Dewpoint: 26.0°C (79°F) [RH = 89%]
Pressure (altimeter): 29.79 inches Hg (1009.0 mb)
Winds: from the S (190 degrees) at 3 MPH (3 knots; 1.6 m/s)
Visibility: 6 or more miles (10+ km)
Ceiling: at least 12,000 feet AGL
Clouds: few clouds at 1700 feet AGL
Weather: no significant weather observed at this time

Forecast for: ROIG (ISHIGAKIJIMA ISL, JP)
Text: TAF ROIG 211110Z 2112/2218 17004KT 9999 FEW015 SCT025
Forecast period: 1200 UTC 21 September 2017 to 1800 UTC 22 September 2017
Forecast type: FROM: standard forecast or significant change
Winds: from the S (170 degrees) at 5 MPH (4 knots; 2.1 m/s)
Visibility: 6 or more miles (10+ km)
Clouds: few clouds at 1500 feet AGL
scattered clouds at 2500 feet AGL
Weather: no significant weather forecast for this period
Text: TEMPO 2203/2209 4000 SHRA FEW010 BKN020 FEW025CB
Forecast period: 0300 to 0900 UTC 22 September 2017
Forecast type: TEMPORARY: The following changes expected for less than half the time period
Visibility: 2.49 miles (4.01 km)
Ceiling: 2000 feet AGL
Clouds: few clouds at 1000 feet AGL
broken clouds at 2000 feet AGL
few clouds at 2500 feet AGL
Weather: SHRA  (rain showers)